Time;durP1;ratioP1;P1;durP2;ratioP2;P2;SDS_P1;SDS_P2;PMS_P1;PMS_P2;Temp;Humidity;BMP_temperature;BMP_pressure;BME280_temperature;BME280_humidity;BME280_pressure;Samples;Min_cycle;Max_cycle;Signal;HPM_P1;HPM_P2
2022/09/27 00:00:28;;;;;;;6.65;0.90;;;10.30;99.90;;;;;;5087280;28;20092;-55
2022/09/27 00:02:54;;;;;;;10.77;0.90;;;10.90;99.90;;;;;;5087442;28;20040;-55
2022/09/27 00:05:20;;;;;;;6.55;0.80;;;9.60;99.90;;;;;;5086534;28;21965;-55
2022/09/27 00:07:45;;;;;;;6.72;0.70;;;10.90;99.90;;;;;;5086173;28;20048;-54
2022/09/27 00:10:11;;;;;;;5.38;0.73;;;9.80;99.90;;;;;;5086138;28;20044;-55
2022/09/27 00:12:37;;;;;;;10.50;0.88;;;9.80;99.90;;;;;;5086513;28;20109;-55
2022/09/27 00:15:05;;;;;;;7.55;0.80;;;11.80;99.90;;;;;;5087299;28;20043;-55
2022/09/27 00:17:30;;;;;;;7.38;0.80;;;9.70;99.90;;;;;;5087550;28;20504;-54
2022/09/27 00:19:58;;;;;;;6.05;0.70;;;10.70;99.90;;;;;;5085802;28;20047;-54
2022/09/27 00:22:25;;;;;;;4.90;0.88;;;9.70;99.90;;;;;;5085424;28;20059;-54
2022/09/27 00:24:51;;;;;;;7.43;0.70;;;11.80;99.90;;;;;;5085993;28;20081;-55
2022/09/27 00:27:17;;;;;;;11.20;0.95;;;9.50;99.90;;;;;;5086784;28;20039;-55
2022/09/27 00:29:44;;;;;;;5.82;0.82;;;10.10;99.90;;;;;;5084956;28;20073;-53
2022/09/27 00:32:10;;;;;;;5.75;0.60;;;9.80;99.90;;;;;;5084199;28;20060;-54
2022/09/27 00:34:36;;;;;;;5.75;0.70;;;9.50;99.90;;;;;;5085802;28;20047;-55
2022/09/27 00:37:02;;;;;;;5.40;0.73;;;10.40;99.90;;;;;;5085355;28;20059;-53
2022/09/27 00:39:28;;;;;;;8.25;0.85;;;9.50;99.90;;;;;;5085115;28;20155;-54
2022/09/27 00:41:54;;;;;;;8.77;1.13;;;10.70;99.90;;;;;;5086527;28;20039;-54
2022/09/27 00:44:25;;;;;;;5.93;1.08;;;9.60;99.90;;;;;;5086094;28;20134;-54
2022/09/27 00:47:22;;;;;;;8.48;1.10;;;9.80;99.90;;;;;;5085997;28;20858;-55
2022/09/27 00:49:56;;;;;;;9.85;0.95;;;9.60;99.90;;;;;;5084960;28;20127;-54
2022/09/27 00:52:27;;;;;;;8.90;1.00;;;9.60;99.90;;;;;;5084874;28;20507;-53
2022/09/27 00:55:01;;;;;;;5.55;1.10;;;9.50;99.90;;;;;;5086045;28;20048;-54
2022/09/27 00:57:27;;;;;;;8.65;0.77;;;10.70;99.90;;;;;;5084753;28;20037;-54
2022/09/27 01:00:08;;;;;;;6.97;0.80;;;10.50;99.90;;;;;;5071707;28;20070;-53
2022/09/27 01:02:37;;;;;;;6.55;1.00;;;9.70;99.90;;;;;;5074046;28;20403;-53
2022/09/27 01:05:04;;;;;;;5.65;0.70;;;9.70;99.90;;;;;;5070686;28;20412;-54
2022/09/27 01:07:30;;;;;;;6.05;0.88;;;9.60;99.90;;;;;;5070856;28;20040;-54
2022/09/27 01:09:56;;;;;;;7.38;0.90;;;10.20;99.90;;;;;;5069724;28;20097;-53
2022/09/27 01:12:42;;;;;;;6.57;0.90;;;10.20;99.90;;;;;;5069701;28;20048;-55
2022/09/27 01:15:49;;;;;;;8.70;1.20;;;9.50;99.90;;;;;;5069240;28;20512;-54
2022/09/27 01:18:46;;;;;;;9.60;1.13;;;9.40;99.90;;;;;;5071195;28;20044;-54
2022/09/27 01:21:45;;;;;;;3.65;0.60;;;9.70;99.90;;;;;;5069791;28;20049;-52
2022/09/27 01:24:57;;;;;;;2.00;0.47;;;9.60;99.90;;;;;;5071814;28;20051;-53
2022/09/27 01:27:50;;;;;;;1.23;0.33;;;9.50;99.90;;;;;;5034792;28;20095;-52
2022/09/27 01:30:31;;;;;;;3.25;0.50;;;12.10;99.90;;;;;;5070852;28;20343;-54
2022/09/27 01:32:57;;;;;;;3.40;0.70;;;9.70;99.90;;;;;;5072617;28;20083;-54
2022/09/27 01:35:35;;;;;;;3.80;0.50;;;9.70;99.90;;;;;;5071296;28;20142;-51
2022/09/27 01:38:33;;;;;;;3.17;0.60;;;10.00;99.90;;;;;;5071274;28;20043;-54
2022/09/27 01:41:23;;;;;;;3.42;0.50;;;9.70;99.90;;;;;;5070156;28;20040;-55
2022/09/27 01:44:28;;;;;;;8.82;1.20;;;9.70;99.90;;;;;;5069808;28;20373;-55
2022/09/27 01:46:57;;;;;;;6.50;1.08;;;9.70;99.90;;;;;;5057188;28;20074;-51
2022/09/27 01:49:38;;;;;;;8.13;0.80;;;9.70;99.90;;;;;;5070469;28;20102;-51
2022/09/27 01:52:07;;;;;;;6.25;0.70;;;9.60;99.90;;;;;;5070207;28;20085;-52
2022/09/27 01:54:47;;;;;;;8.52;0.85;;;11.50;99.90;;;;;;5071495;28;20044;-54
2022/09/27 01:57:18;;;;;;;6.03;0.90;;;9.90;99.90;;;;;;5070481;28;20045;-53
2022/09/27 01:59:55;;;;;;;8.25;0.75;;;10.00;99.90;;;;;;5070248;28;20040;-52
2022/09/27 02:02:24;;;;;;;2.92;0.77;;;9.70;99.90;;;;;;5071500;28;20412;-54
2022/09/27 02:04:54;;;;;;;5.53;0.80;;;9.50;99.90;;;;;;5071404;28;20122;-53
2022/09/27 02:07:26;;;;;;;9.07;1.00;;;9.50;99.90;;;;;;5070265;28;20438;-52
2022/09/27 02:10:21;;;;;;;8.20;0.80;;;10.00;99.90;;;;;;5070676;28;20128;-54
2022/09/27 02:13:16;;;;;;;5.75;0.90;;;9.60;99.90;;;;;;5069200;28;20119;-54
2022/09/27 02:15:56;;;;;;;7.30;1.10;;;9.70;99.90;;;;;;5070259;28;20408;-55
2022/09/27 02:18:34;;;;;;;4.72;0.73;;;9.60;99.90;;;;;;5071274;28;20567;-52
2022/09/27 02:21:04;;;;;;;6.63;0.82;;;9.40;99.90;;;;;;5070193;28;20052;-54
2022/09/27 02:23:40;;;;;;;7.15;0.82;;;9.40;99.90;;;;;;5070900;28;20048;-53
2022/09/27 02:26:16;;;;;;;5.03;0.98;;;9.50;99.90;;;;;;5070244;28;20688;-54
2022/09/27 02:28:50;;;;;;;6.57;0.70;;;9.40;99.90;;;;;;5071516;28;20088;-53
2022/09/27 02:31:16;;;;;;;5.35;0.80;;;9.50;99.90;;;;;;5071059;28;20071;-54
2022/09/27 02:33:51;;;;;;;6.95;0.98;;;10.40;99.90;;;;;;5072303;28;20778;-55
2022/09/27 02:36:17;;;;;;;6.68;0.80;;;10.50;99.90;;;;;;5070079;28;20091;-52
2022/09/27 02:38:43;;;;;;;6.10;1.27;;;11.20;99.90;;;;;;5071397;28;20044;-54
2022/09/27 02:41:17;;;;;;;3.92;0.85;;;9.30;99.90;;;;;;5068203;28;20112;-53
2022/09/27 02:43:46;;;;;;;8.05;0.98;;;9.80;99.90;;;;;;5068275;28;20050;-54
2022/09/27 02:46:35;;;;;;;5.15;0.70;;;10.30;99.90;;;;;;5067958;28;20056;-54
2022/09/27 02:49:23;;;;;;;3.15;0.57;;;9.20;99.90;;;;;;5062050;28;20044;-50
2022/09/27 02:51:59;;;;;;;4.07;0.52;;;9.50;99.90;;;;;;5068449;28;20591;-54
2022/09/27 02:54:46;;;;;;;6.43;0.75;;;11.30;99.90;;;;;;5069155;28;20138;-54
2022/09/27 02:57:30;;;;;;;5.32;0.77;;;9.50;99.90;;;;;;5068057;28;20272;-54
2022/09/27 03:00:13;;;;;;;6.80;0.82;;;9.40;99.90;;;;;;5068227;28;20700;-53
2022/09/27 03:03:06;;;;;;;3.47;0.40;;;9.40;99.90;;;;;;5071061;28;20041;-53
2022/09/27 03:05:52;;;;;;;3.15;0.40;;;9.30;99.90;;;;;;5071416;28;20534;-55
2022/09/27 03:08:19;;;;;;;7.20;0.73;;;9.20;99.90;;;;;;5070256;28;20042;-52
2022/09/27 03:10:44;;;;;;;9.07;0.70;;;9.40;99.90;;;;;;5069495;28;20386;-52
2022/09/27 03:13:11;;;;;;;5.18;0.63;;;9.30;99.90;;;;;;5070909;28;20036;-52
2022/09/27 03:15:37;;;;;;;4.05;0.60;;;9.30;99.90;;;;;;5070953;28;20163;-55
2022/09/27 03:18:04;;;;;;;5.40;0.90;;;9.10;99.90;;;;;;5070732;28;20135;-54
2022/09/27 03:20:30;;;;;;;6.00;0.55;;;9.20;99.90;;;;;;5070340;28;20058;-52
2022/09/27 03:22:56;;;;;;;8.43;1.55;;;9.90;99.90;;;;;;5069572;28;20043;-53
2022/09/27 03:25:21;;;;;;;5.65;0.80;;;9.20;99.90;;;;;;5070380;28;20036;-54
2022/09/27 03:27:47;;;;;;;6.90;0.73;;;9.10;99.90;;;;;;5069195;28;20123;-53
2022/09/27 03:30:14;;;;;;;6.55;0.60;;;9.20;99.90;;;;;;5068781;28;20067;-53
2022/09/27 03:32:44;;;;;;;4.55;0.80;;;9.30;99.90;;;;;;5069734;28;20050;-56
2022/09/27 03:35:11;;;;;;;7.03;1.02;;;9.90;99.90;;;;;;5070559;28;20056;-55
2022/09/27 03:37:37;;;;;;;7.95;0.70;;;9.40;99.90;;;;;;5070560;28;20039;-55
2022/09/27 03:40:04;;;;;;;4.00;0.70;;;9.30;99.90;;;;;;5069335;28;20489;-55
2022/09/27 03:42:29;;;;;;;4.93;0.65;;;9.20;99.90;;;;;;5069931;28;20077;-55
2022/09/27 03:44:55;;;;;;;5.45;0.60;;;9.20;99.90;;;;;;5069760;28;20055;-52
2022/09/27 03:47:21;;;;;;;5.43;0.70;;;9.30;99.90;;;;;;5069091;28;20052;-53
2022/09/27 03:49:48;;;;;;;4.65;0.80;;;9.30;99.90;;;;;;5067568;28;20571;-53
2022/09/27 03:52:14;;;;;;;6.22;0.80;;;9.30;99.90;;;;;;5067484;28;20036;-53
2022/09/27 03:54:40;;;;;;;5.35;0.60;;;9.30;99.90;;;;;;5067572;28;20201;-53
2022/09/27 03:57:06;;;;;;;3.65;0.60;;;9.30;99.90;;;;;;5068894;28;20497;-56
2022/09/27 03:59:32;;;;;;;9.85;0.90;;;9.20;99.90;;;;;;5066280;28;20087;-53
2022/09/27 04:01:58;;;;;;;3.33;0.52;;;9.40;99.90;;;;;;5067384;28;20509;-52
2022/09/27 04:04:23;;;;;;;4.95;0.57;;;9.70;99.90;;;;;;5068277;28;20040;-54
2022/09/27 04:06:49;;;;;;;4.80;0.70;;;9.20;99.90;;;;;;5070026;28;20162;-53
2022/09/27 04:09:15;;;;;;;5.07;0.70;;;9.30;99.90;;;;;;5069494;28;20443;-49
2022/09/27 04:11:41;;;;;;;4.75;0.63;;;9.20;99.90;;;;;;5068897;28;20070;-52
2022/09/27 04:14:07;;;;;;;3.47;0.57;;;10.70;99.90;;;;;;5068128;28;20052;-54
2022/09/27 04:16:34;;;;;;;4.30;0.50;;;9.10;99.90;;;;;;5069814;28;20051;-53
2022/09/27 04:19:03;;;;;;;2.95;0.40;;;9.00;99.90;;;;;;5068096;28;20059;-53
2022/09/27 04:21:28;;;;;;;1.65;0.38;;;9.10;99.90;;;;;;5069923;28;20043;-51
2022/09/27 04:23:54;;;;;;;3.25;1.38;;;9.10;99.90;;;;;;5068504;28;20052;-53
2022/09/27 04:26:20;;;;;;;4.00;0.40;;;9.00;99.90;;;;;;5070305;28;20131;-52
2022/09/27 04:28:45;;;;;;;3.92;0.50;;;9.20;99.90;;;;;;5070973;28;20044;-54
2022/09/27 04:31:11;;;;;;;4.63;0.60;;;9.10;99.90;;;;;;5068966;28;20144;-53
2022/09/27 04:33:37;;;;;;;4.03;0.55;;;10.70;99.90;;;;;;5068985;28;20046;-49
2022/09/27 04:38:47;;;;;;;4.15;0.50;;;9.20;99.90;;;;;;5071612;28;20538;-50
2022/09/27 04:41:14;;;;;;;7.05;1.05;;;9.10;99.90;;;;;;5070568;28;20127;-49
2022/09/27 04:43:40;;;;;;;3.28;0.60;;;9.10;99.90;;;;;;5072180;28;20047;-48
2022/09/27 04:46:06;;;;;;;6.20;0.70;;;10.00;99.90;;;;;;5073458;28;20048;-51
2022/09/27 04:48:32;;;;;;;5.40;0.70;;;9.20;99.90;;;;;;5071308;28;20043;-47
2022/09/27 04:51:01;;;;;;;7.85;1.65;;;9.00;99.90;;;;;;5072008;28;20036;-47
2022/09/27 04:53:28;;;;;;;5.18;1.00;;;9.20;99.90;;;;;;5071485;28;20032;-47
2022/09/27 04:55:54;;;;;;;5.05;0.90;;;9.20;99.90;;;;;;5073013;28;20123;-51
2022/09/27 04:58:21;;;;;;;6.78;1.10;;;9.10;99.90;;;;;;5072897;28;20032;-49
2022/09/27 05:00:49;;;;;;;4.57;0.80;;;9.20;99.90;;;;;;5072219;28;20059;-48
2022/09/27 05:03:14;;;;;;;5.75;1.27;;;9.10;99.90;;;;;;5068632;28;20620;-50
2022/09/27 05:05:40;;;;;;;9.13;1.08;;;9.00;99.90;;;;;;5071615;28;20129;-48
2022/09/27 05:08:06;;;;;;;5.25;0.70;;;9.10;99.90;;;;;;5072024;28;20346;-48
2022/09/27 05:10:32;;;;;;;4.03;0.40;;;9.10;99.90;;;;;;5071944;28;20455;-52
2022/09/27 05:12:58;;;;;;;6.22;0.70;;;10.80;99.90;;;;;;5071236;28;20036;-49
2022/09/27 05:15:23;;;;;;;3.75;0.63;;;9.10;99.90;;;;;;5070843;28;20048;-49
2022/09/27 05:17:52;;;;;;;5.95;0.70;;;10.00;99.90;;;;;;5072480;28;20040;-51
2022/09/27 05:20:19;;;;;;;5.80;0.80;;;9.80;99.90;;;;;;5069711;28;20076;-51
2022/09/27 05:22:45;;;;;;;4.95;0.85;;;9.20;99.90;;;;;;5070349;28;20032;-51
2022/09/27 05:25:12;;;;;;;1.80;0.40;;;9.00;99.90;;;;;;5070713;28;21267;-49
2022/09/27 05:27:38;;;;;;;5.45;0.63;;;9.00;99.90;;;;;;5070687;28;20036;-48
2022/09/27 05:30:06;;;;;;;4.95;0.60;;;9.00;99.90;;;;;;5072204;28;20050;-47
2022/09/27 05:32:33;;;;;;;3.50;0.93;;;8.90;99.90;;;;;;5071615;28;20129;-48
2022/09/27 05:34:59;;;;;;;5.88;0.80;;;10.40;99.90;;;;;;5071699;28;20424;-48
2022/09/27 05:37:25;;;;;;;4.53;0.57;;;9.00;99.90;;;;;;5072227;28;20039;-49
2022/09/27 05:39:51;;;;;;;6.75;0.93;;;10.80;99.90;;;;;;5072169;28;20067;-48
2022/09/27 05:42:17;;;;;;;5.22;0.70;;;8.70;99.90;;;;;;5069851;28;20036;-48
2022/09/27 05:44:47;;;;;;;7.68;1.00;;;9.00;99.90;;;;;;5072083;28;20043;-48
2022/09/27 05:47:14;;;;;;;7.55;0.90;;;9.40;99.90;;;;;;5070097;28;20133;-50
2022/09/27 05:49:40;;;;;;;4.97;1.00;;;9.80;99.90;;;;;;5072002;28;20082;-50
2022/09/27 05:52:06;;;;;;;6.93;0.70;;;9.20;99.90;;;;;;5072706;28;20036;-52
2022/09/27 05:54:33;;;;;;;5.53;0.80;;;10.60;99.90;;;;;;5072802;28;20044;-49
2022/09/27 05:56:59;;;;;;;4.45;0.80;;;9.10;99.90;;;;;;5072062;28;20123;-51
2022/09/27 05:59:26;;;;;;;3.53;0.82;;;9.80;99.90;;;;;;5072559;28;20038;-50
2022/09/27 06:01:52;;;;;;;5.00;1.05;;;9.10;99.90;;;;;;5072344;28;20551;-52
2022/09/27 06:04:18;;;;;;;3.70;0.93;;;9.00;99.90;;;;;;5072777;28;20109;-51
2022/09/27 06:06:44;;;;;;;4.78;0.95;;;9.10;99.90;;;;;;5071823;28;20042;-53
2022/09/27 06:09:12;;;;;;;5.20;0.70;;;9.10;99.90;;;;;;5070446;28;20411;-48
2022/09/27 06:11:38;;;;;;;9.50;1.67;;;9.00;99.90;;;;;;5070914;28;20123;-49
2022/09/27 06:14:04;;;;;;;3.53;0.80;;;9.00;99.90;;;;;;5070669;28;20130;-50
2022/09/27 06:16:29;;;;;;;6.20;1.17;;;9.10;99.90;;;;;;5069361;28;20100;-53
2022/09/27 06:18:56;;;;;;;2.85;0.70;;;9.10;99.90;;;;;;5069022;28;20039;-48
2022/09/27 06:21:22;;;;;;;4.05;0.88;;;9.90;99.90;;;;;;5071405;28;20484;-51
2022/09/27 06:23:48;;;;;;;9.48;1.00;;;9.10;99.90;;;;;;5072136;28;20044;-51
2022/09/27 06:26:15;;;;;;;7.95;1.45;;;9.10;99.90;;;;;;5070719;28;20143;-50
2022/09/27 06:28:41;;;;;;;8.80;1.13;;;9.20;99.90;;;;;;5069297;28;20056;-49
2022/09/27 06:31:07;;;;;;;5.60;1.08;;;9.10;99.90;;;;;;5070536;28;20130;-49
2022/09/27 06:33:34;;;;;;;5.30;0.75;;;9.60;99.90;;;;;;5071202;28;20105;-50
2022/09/27 06:36:07;;;;;;;6.93;0.80;;;9.20;99.90;;;;;;5072349;28;20115;-49
2022/09/27 06:38:33;;;;;;;9.18;1.42;;;9.30;99.90;;;;;;5069424;28;20044;-52
2022/09/27 06:41:05;;;;;;;5.95;0.90;;;10.40;99.90;;;;;;5067964;28;20044;-48
2022/09/27 06:43:32;;;;;;;5.07;0.95;;;9.40;99.90;;;;;;5070993;28;20040;-52
2022/09/27 06:46:04;;;;;;;4.00;0.95;;;9.20;99.90;;;;;;5070981;28;20047;-49
2022/09/27 06:48:31;;;;;;;3.83;0.70;;;11.20;99.90;;;;;;5070659;28;20130;-49
2022/09/27 06:50:57;;;;;;;6.18;1.58;;;9.30;99.90;;;;;;5071037;28;20051;-50
2022/09/27 06:53:24;;;;;;;5.90;1.90;;;9.30;99.90;;;;;;5072948;28;20311;-51
2022/09/27 06:55:50;;;;;;;3.97;0.70;;;10.00;99.90;;;;;;5069952;28;20419;-51
2022/09/27 07:01:01;;;;;;;9.45;1.38;;;9.40;99.90;;;;;;5071511;28;20202;-49
2022/09/27 07:03:33;;;;;;;5.53;1.20;;;9.40;99.90;;;;;;5073006;28;20052;-51
2022/09/27 07:06:01;;;;;;;4.10;0.90;;;9.40;99.90;;;;;;5073255;28;20036;-48
2022/09/27 07:08:28;;;;;;;6.32;1.02;;;9.70;99.90;;;;;;5071093;28;21180;-51
2022/09/27 07:10:55;;;;;;;5.13;0.90;;;10.50;99.90;;;;;;5070608;28;20051;-53
2022/09/27 07:13:21;;;;;;;5.63;0.80;;;11.40;99.90;;;;;;5070847;28;20072;-51
2022/09/27 07:15:47;;;;;;;5.35;0.75;;;10.10;99.90;;;;;;5071027;28;20036;-51
2022/09/27 07:18:13;;;;;;;2.63;0.50;;;10.30;99.90;;;;;;5070676;28;20040;-52
2022/09/27 07:20:39;;;;;;;3.33;0.50;;;10.60;99.90;;;;;;5069747;28;20035;-50
2022/09/27 07:23:06;;;;;;;0.25;0.20;;;10.40;99.90;;;;;;5070144;28;20776;-49
2022/09/27 07:25:33;;;;;;;2.17;0.40;;;10.50;99.90;;;;;;5070862;28;20047;-50
2022/09/27 07:28:04;;;;;;;2.72;0.50;;;11.90;99.90;;;;;;5070000;28;21000;-51
2022/09/27 07:30:31;;;;;;;3.07;0.50;;;11.20;99.90;;;;;;5069292;28;20036;-52
2022/09/27 07:33:02;;;;;;;3.17;0.70;;;11.40;99.90;;;;;;5071183;28;20135;-52
2022/09/27 07:35:28;;;;;;;2.08;0.55;;;11.20;99.90;;;;;;5070826;28;20068;-52
2022/09/27 07:37:55;;;;;;;4.13;0.60;;;13.20;99.90;;;;;;5070315;28;20097;-49
2022/09/27 07:40:21;;;;;;;1.95;0.30;;;11.30;99.90;;;;;;5070673;28;20652;-51
2022/09/27 07:42:53;;;;;;;3.40;0.60;;;11.80;99.90;;;;;;5051807;28;20273;-51
2022/09/27 07:45:18;;;;;;;2.70;0.50;;;11.20;99.90;;;;;;5068894;28;20044;-51
2022/09/27 07:47:45;;;;;;;1.67;0.40;;;12.00;99.90;;;;;;5070646;28;20148;-49
2022/09/27 07:50:10;;;;;;;2.17;0.40;;;11.00;99.90;;;;;;5068657;28;20080;-53
2022/09/27 07:52:44;;;;;;;2.47;0.50;;;10.80;99.90;;;;;;5071223;28;20143;-53
2022/09/27 07:55:12;;;;;;;0.60;0.20;;;10.60;99.90;;;;;;5070178;28;20047;-53
2022/09/27 07:57:38;;;;;;;5.90;0.82;;;10.70;99.90;;;;;;5069750;28;20040;-52
2022/09/27 08:00:06;;;;;;;3.08;0.50;;;11.80;99.90;;;;;;5069436;28;20040;-50
2022/09/27 08:02:32;;;;;;;3.70;0.68;;;10.50;99.90;;;;;;5069582;28;20052;-54
2022/09/27 08:04:59;;;;;;;1.65;0.40;;;10.70;99.90;;;;;;5071045;28;20036;-52
2022/09/27 08:07:25;;;;;;;3.15;0.43;;;11.40;99.90;;;;;;5071487;28;20032;-51
2022/09/27 08:09:51;;;;;;;2.75;0.30;;;10.60;99.90;;;;;;5072808;28;20028;-52
2022/09/27 08:12:19;;;;;;;1.50;0.32;;;10.90;99.90;;;;;;5074171;28;20732;-53
2022/09/27 08:14:46;;;;;;;2.08;0.60;;;12.30;99.90;;;;;;5073630;28;20594;-50
2022/09/27 08:17:12;;;;;;;2.92;0.60;;;11.00;99.90;;;;;;5074948;28;20036;-51
2022/09/27 08:19:39;;;;;;;3.50;0.45;;;12.70;99.90;;;;;;5074175;28;20047;-55
2022/09/27 08:22:06;;;;;;;3.35;0.70;;;11.10;99.90;;;;;;5074238;28;20131;-52
2022/09/27 08:24:32;;;;;;;4.95;1.08;;;11.10;99.90;;;;;;5073663;28;20045;-53
2022/09/27 08:26:58;;;;;;;3.38;0.60;;;11.40;99.90;;;;;;5074446;28;20044;-53
2022/09/27 08:29:24;;;;;;;2.88;0.50;;;11.40;99.90;;;;;;5074296;28;20035;-53
2022/09/27 08:31:51;;;;;;;3.10;0.50;;;11.40;99.90;;;;;;5071980;28;20044;-54
2022/09/27 08:34:16;;;;;;;3.70;0.50;;;11.50;99.90;;;;;;5072022;28;20069;-53
2022/09/27 08:36:42;;;;;;;3.38;0.60;;;11.40;99.90;;;;;;5073321;28;21577;-54
2022/09/27 08:39:08;;;;;;;4.07;0.73;;;11.40;99.90;;;;;;5073179;28;20036;-53
2022/09/27 08:41:40;;;;;;;5.95;0.68;;;11.60;99.90;;;;;;5071721;28;20051;-53
2022/09/27 08:44:23;;;;;;;3.53;0.63;;;11.50;99.90;;;;;;5071267;28;20101;-50
2022/09/27 08:46:59;;;;;;;3.47;0.70;;;10.70;99.90;;;;;;5069885;28;20062;-50
2022/09/27 08:49:42;;;;;;;5.28;0.80;;;11.70;99.90;;;;;;5071661;28;20636;-54
2022/09/27 08:52:26;;;;;;;2.80;0.60;;;11.70;99.90;;;;;;5071169;28;20071;-54
2022/09/27 08:54:52;;;;;;;5.72;0.73;;;12.00;99.90;;;;;;5072558;28;20054;-53
2022/09/27 08:57:21;;;;;;;2.95;0.50;;;11.90;99.90;;;;;;5073221;28;20118;-51
2022/09/27 09:00:04;;;;;;;5.32;0.70;;;12.70;99.90;;;;;;5073762;28;20036;-52
2022/09/27 09:02:29;;;;;;;2.95;0.50;;;11.90;96.50;;;;;;5073396;28;20209;-52
2022/09/27 09:05:01;;;;;;;3.72;0.52;;;11.90;96.10;;;;;;5073751;28;20040;-52
2022/09/27 09:07:41;;;;;;;4.78;0.70;;;13.70;97.90;;;;;;5073540;28;20048;-54
2022/09/27 09:12:45;;;;;;;5.30;0.88;;;12.00;98.50;;;;;;5071976;28;20504;-50
2022/09/27 09:13:13;;;;;;;2.85;0.63;;;10.50;95.90;;;;;;5073852;28;20048;-52
2022/09/27 09:15:55;;;;;;;3.47;0.77;;;12.20;95.40;;;;;;5072438;28;21364;-53
2022/09/27 09:18:43;;;;;;;5.63;0.85;;;12.20;94.80;;;;;;5072142;28;20050;-53
2022/09/27 09:22:02;;;;;;;3.00;0.50;;;12.00;92.70;;;;;;5068916;28;20138;-51
2022/09/27 09:24:32;;;;;;;3.55;0.55;;;12.20;94.30;;;;;;5010982;28;20073;-54
2022/09/27 09:27:21;;;;;;;1.95;0.60;;;11.90;95.70;;;;;;5060519;28;20060;-51
2022/09/27 09:30:17;;;;;;;2.92;0.30;;;11.70;91.70;;;;;;5073302;28;20035;-49
2022/09/27 09:33:01;;;;;;;3.00;0.40;;;11.20;94.30;;;;;;5071861;28;20157;-49
2022/09/27 09:35:44;;;;;;;4.90;0.50;;;10.80;97.90;;;;;;5072759;28;20117;-52
2022/09/27 09:38:16;;;;;;;2.38;0.30;;;10.80;99.50;;;;;;5071833;28;20472;-50
2022/09/27 09:40:45;;;;;;;;;;;10.70;99.90;;;;;;5071687;28;20405;-49
2022/09/27 09:43:36;;;;;;;1.90;0.25;;;10.50;99.90;;;;;;5070475;28;19923;-50
2022/09/27 09:46:12;;;;;;;2.00;0.25;;;10.40;99.90;;;;;;5068657;28;20535;-50
2022/09/27 09:48:45;;;;;;;1.10;0.20;;;10.30;99.90;;;;;;5070350;28;20041;-52
2022/09/27 09:51:21;;;;;;;4.43;0.40;;;10.60;99.90;;;;;;5071282;28;20032;-52
2022/09/27 09:53:56;;;;;;;5.10;0.52;;;10.50;99.90;;;;;;5070474;28;20035;-52
2022/09/27 09:57:17;;;;;;;2.97;0.45;;;12.20;99.90;;;;;;5068829;28;20043;-53
2022/09/27 10:00:12;;;;;;;2.28;0.40;;;10.50;99.90;;;;;;5064916;28;20059;-52
2022/09/27 10:02:41;;;;;;;3.10;0.30;;;10.70;99.90;;;;;;5071753;28;20399;-52
2022/09/27 10:05:14;;;;;;;1.25;0.28;;;10.80;99.90;;;;;;5071524;28;20429;-51
2022/09/27 10:07:40;;;;;;;3.72;0.60;;;11.00;99.90;;;;;;5071907;28;20040;-52
2022/09/27 10:10:07;;;;;;;2.28;0.50;;;11.10;99.90;;;;;;5070086;28;20113;-53
2022/09/27 10:12:34;;;;;;;3.03;0.60;;;11.40;99.90;;;;;;5071503;28;21491;-55
2022/09/27 10:15:03;;;;;;;5.78;0.57;;;11.60;99.90;;;;;;5071949;28;20158;-54
2022/09/27 10:17:40;;;;;;;2.50;0.40;;;11.80;99.90;;;;;;5072439;28;20058;-52
2022/09/27 10:20:06;;;;;;;2.80;0.50;;;12.20;99.90;;;;;;5072465;28;20044;-55
2022/09/27 10:22:38;;;;;;;5.10;0.70;;;11.60;99.90;;;;;;5072367;28;20051;-55
2022/09/27 10:25:08;;;;;;;;;;;12.30;99.90;;;;;;5071955;28;20055;-50
2022/09/27 10:27:45;;;;;;;3.13;0.65;;;11.50;99.90;;;;;;5072291;28;19924;-53
2022/09/27 10:30:27;;;;;;;5.88;0.50;;;11.60;99.90;;;;;;5071480;28;20087;-51
2022/09/27 10:32:58;;;;;;;1.38;0.32;;;11.50;99.90;;;;;;5069566;28;20044;-50
2022/09/27 10:35:34;;;;;;;2.72;0.20;;;11.40;98.40;;;;;;5071099;28;20035;-50
2022/09/27 10:38:15;;;;;;;3.13;0.35;;;10.90;99.60;;;;;;5072474;28;20070;-52
2022/09/27 10:40:42;;;;;;;0.65;0.20;;;11.00;99.90;;;;;;5054225;28;20177;-52
2022/09/27 10:43:28;;;;;;;3.15;0.40;;;11.00;99.90;;;;;;5070523;28;20151;-52
2022/09/27 10:46:11;;;;;;;2.47;0.30;;;11.00;99.90;;;;;;5070951;28;20384;-51
2022/09/27 10:48:39;;;;;;;2.85;0.25;;;11.10;99.90;;;;;;5069087;28;20050;-54
2022/09/27 10:51:20;;;;;;;3.25;0.60;;;11.10;99.90;;;;;;5068723;28;20729;-53
2022/09/27 10:53:46;;;;;;;3.20;0.68;;;10.90;99.90;;;;;;5071024;28;20078;-50
2022/09/27 10:56:31;;;;;;;7.30;0.60;;;11.80;99.90;;;;;;5069938;28;20122;-54
2022/09/27 10:58:58;;;;;;;9.50;1.40;;;10.80;99.90;;;;;;5070009;28;20122;-50
2022/09/27 11:01:37;;;;;;;12.95;1.20;;;12.40;99.90;;;;;;5070292;28;20058;-53
2022/09/27 11:04:03;;;;;;;3.70;0.63;;;10.60;99.90;;;;;;5069839;28;20974;-54
2022/09/27 11:06:36;;;;;;;7.53;1.30;;;10.70;99.90;;;;;;5073076;28;20448;-49
2022/09/27 11:09:18;;;;;;;12.35;2.53;;;11.60;99.90;;;;;;5070676;28;20803;-52
2022/09/27 11:11:45;;;;;;;59.15;9.20;;;10.70;99.90;;;;;;5068697;28;20504;-54
2022/09/27 11:14:24;;;;;;;33.17;6.45;;;11.00;99.90;;;;;;5070105;28;20104;-54
2022/09/27 11:16:58;;;;;;;15.82;3.03;;;11.10;99.90;;;;;;5071032;28;20093;-54
2022/09/27 11:19:54;;;;;;;19.20;2.83;;;11.60;99.90;;;;;;5070640;28;20044;-55
2022/09/27 11:22:58;;;;;;;14.13;2.53;;;11.80;99.90;;;;;;5060702;28;20664;-55
2022/09/27 11:25:57;;;;;;;11.38;1.98;;;12.00;99.90;;;;;;5068851;28;20049;-55
2022/09/27 11:28:35;;;;;;;19.23;3.60;;;12.20;99.90;;;;;;5068828;28;20039;-54
2022/09/27 11:31:14;;;;;;;16.23;2.60;;;12.50;99.90;;;;;;5068199;28;20701;-56
2022/09/27 11:34:23;;;;;;;5.95;1.20;;;12.80;93.60;;;;;;5068478;28;20050;-53
2022/09/27 11:36:55;;;;;;;8.45;1.80;;;12.80;79.80;;;;;;5070829;28;20051;-54
2022/09/27 11:39:29;;;;;;;10.32;1.35;;;12.90;90.50;;;;;;5071278;28;20039;-55
2022/09/27 11:42:07;;;;;;;5.72;1.00;;;14.00;79.30;;;;;;5069030;28;20036;-55
2022/09/27 11:44:51;;;;;;;7.57;1.42;;;12.60;83.00;;;;;;5067735;28;20079;-56
2022/09/27 11:47:40;;;;;;;8.63;1.50;;;12.50;84.60;;;;;;5069779;28;20058;-54
2022/09/27 11:50:33;;;;;;;7.82;1.30;;;12.60;91.80;;;;;;5068446;28;20470;-55
2022/09/27 11:53:34;;;;;;;4.78;0.75;;;12.80;95.70;;;;;;5053582;28;20427;-56
2022/09/27 11:56:22;;;;;;;7.63;1.08;;;12.90;93.20;;;;;;5052383;28;20048;-56
2022/09/27 11:59:19;;;;;;;2.03;0.22;;;12.60;80.10;;;;;;5068881;28;20055;-56
2022/09/27 12:02:17;;;;;;;3.85;0.70;;;12.40;73.80;;;;;;5068941;28;20938;-55
2022/09/27 12:05:03;;;;;;;5.53;0.82;;;12.40;84.70;;;;;;5070328;28;20447;-56
2022/09/27 12:08:12;;;;;;;6.32;1.00;;;12.80;86.60;;;;;;5070304;28;20063;-56
2022/09/27 12:10:41;;;;;;;6.28;0.70;;;12.90;68.90;;;;;;5030466;28;20056;-56
2022/09/27 12:13:13;;;;;;;3.92;0.60;;;12.90;83.10;;;;;;5069281;28;20047;-55
2022/09/27 12:15:42;;;;;;;3.42;0.60;;;12.90;72.40;;;;;;5069274;28;20139;-56
2022/09/27 12:18:25;;;;;;;2.92;0.45;;;12.90;63.30;;;;;;5068585;28;20044;-55
2022/09/27 12:20:51;;;;;;;5.80;1.00;;;13.00;51.40;;;;;;5068844;28;20174;-55
2022/09/27 12:23:40;;;;;;;4.28;0.70;;;12.70;61.70;;;;;;5067976;28;20131;-57
2022/09/27 12:26:21;;;;;;;3.25;0.60;;;12.50;55.10;;;;;;5063661;28;20040;-56
2022/09/27 12:28:51;;;;;;;2.75;0.60;;;12.80;61.60;;;;;;5066462;28;20409;-56
2022/09/27 12:31:20;;;;;;;4.05;0.70;;;12.60;63.20;;;;;;5069153;28;20424;-55
2022/09/27 12:33:53;;;;;;;5.95;1.10;;;13.00;63.90;;;;;;5067964;28;23706;-53
2022/09/27 12:36:23;;;;;;;1.88;0.38;;;12.50;63.80;;;;;;5066637;28;20393;-55
2022/09/27 12:39:00;;;;;;;3.47;0.68;;;12.40;66.30;;;;;;5068631;28;20052;-55
2022/09/27 12:41:30;;;;;;;2.97;0.50;;;12.70;70.30;;;;;;5069160;28;20472;-55
2022/09/27 12:43:58;;;;;;;6.00;0.75;;;12.90;62.10;;;;;;5068896;28;20040;-54
2022/09/27 12:46:52;;;;;;;4.50;0.47;;;12.80;66.60;;;;;;5068843;28;20644;-55
2022/09/27 12:49:40;;;;;;;3.30;0.45;;;12.70;52.80;;;;;;5066555;28;20044;-55
2022/09/27 12:52:11;;;;;;;1.70;0.40;;;12.70;48.80;;;;;;5068419;28;20058;-56
2022/09/27 12:55:02;;;;;;;3.40;0.77;;;12.60;50.00;;;;;;5071755;28;20040;-56
2022/09/27 12:57:49;;;;;;;3.25;0.70;;;12.70;51.60;;;;;;5073157;28;20068;-56
2022/09/27 13:00:22;;;;;;;2.90;0.50;;;12.70;52.70;;;;;;5072633;28;20123;-56
2022/09/27 13:03:11;;;;;;;3.83;0.98;;;12.70;55.00;;;;;;5072251;28;20032;-56
2022/09/27 13:06:15;;;;;;;6.05;0.85;;;12.60;50.90;;;;;;5074016;28;20116;-56
2022/09/27 13:08:50;;;;;;;2.15;0.45;;;12.60;52.30;;;;;;5072932;28;20381;-56
2022/09/27 13:11:28;;;;;;;4.32;0.50;;;12.50;60.50;;;;;;5071021;28;20125;-56
2022/09/27 13:13:59;;;;;;;3.25;0.50;;;12.20;53.70;;;;;;5071503;28;20563;-54
2022/09/27 13:16:25;;;;;;;8.32;0.60;;;12.00;54.70;;;;;;5072637;28;20711;-51
2022/09/27 13:19:02;;;;;;;5.22;0.50;;;11.30;67.70;;;;;;5071185;28;20440;-51
2022/09/27 13:21:49;;;;;;;2.83;0.30;;;10.90;79.10;;;;;;5072681;28;20047;-54
2022/09/27 13:24:40;;;;;;;2.72;0.40;;;10.80;90.50;;;;;;5071943;28;20048;-53
2022/09/27 13:27:27;;;;;;;0.52;0.28;;;10.30;97.30;;;;;;5072371;28;20126;-53